Ponta Grossa, Brazil
Current Conditions -  °F | °C
As of 10:00 PM on Friday 19 Dec 2014 (Local Time) from SBBI Reporting Station
Broken Clouds Broken Clouds  
Wind Chill: 64°   Ceiling: 500
Heat Index: 64°   Visibility: 6mi
Dew Point: 63°   Wind: 5mph
Humidity: 94%   Direction: 50°NE
Pressure: 29.91"   Gusts: NA
Location:  25.09°S, 50.16°W
Report Text: SBBI 200000Z 05004KT 9999 FEW004 BKN005 18/17 Q1013
Loading
Personal Weather Stations






























Interactive Weather Map New forecast layout! Learn more

10-Day Weather Forecast

Advertisements
Track Severe Weather on mobile